sensor_id;sensor_type;location;lat;lon;timestamp;P1;durP1;ratioP1;P2;durP2;ratioP2
59418;SDS011;45224;50.904;6.038;2024-03-02T00:00:35;1.58;;;0.60;;
59418;SDS011;45224;50.904;6.038;2024-03-02T00:02:06;3.50;;;0.70;;
59418;SDS011;45224;50.904;6.038;2024-03-02T00:03:37;2.25;;;0.60;;
59418;SDS011;45224;50.904;6.038;2024-03-02T00:05:11;1.13;;;0.60;;
59418;SDS011;45224;50.904;6.038;2024-03-02T00:06:45;1.30;;;0.63;;
59418;SDS011;45224;50.904;6.038;2024-03-02T00:08:17;2.13;;;0.70;;
59418;SDS011;45224;50.904;6.038;2024-03-02T00:09:55;2.35;;;0.63;;
59418;SDS011;45224;50.904;6.038;2024-03-02T00:11:25;3.08;;;0.70;;
59418;SDS011;45224;50.904;6.038;2024-03-02T00:12:57;2.30;;;0.82;;
59418;SDS011;45224;50.904;6.038;2024-03-02T00:14:29;1.05;;;0.60;;
59418;SDS011;45224;50.904;6.038;2024-03-02T00:15:59;0.57;;;0.55;;
59418;SDS011;45224;50.904;6.038;2024-03-02T00:17:30;0.90;;;0.40;;
59418;SDS011;45224;50.904;6.038;2024-03-02T00:19:01;3.70;;;0.95;;
59418;SDS011;45224;50.904;6.038;2024-03-02T00:20:32;1.27;;;0.50;;
59418;SDS011;45224;50.904;6.038;2024-03-02T00:22:03;1.45;;;0.55;;
59418;SDS011;45224;50.904;6.038;2024-03-02T00:23:34;1.45;;;0.60;;
59418;SDS011;45224;50.904;6.038;2024-03-02T00:25:05;2.35;;;0.60;;
59418;SDS011;45224;50.904;6.038;2024-03-02T00:26:35;1.38;;;0.63;;
59418;SDS011;45224;50.904;6.038;2024-03-02T00:28:10;0.88;;;0.45;;
59418;SDS011;45224;50.904;6.038;2024-03-02T00:29:44;1.98;;;0.80;;
59418;SDS011;45224;50.904;6.038;2024-03-02T00:31:15;2.05;;;0.50;;
59418;SDS011;45224;50.904;6.038;2024-03-02T00:32:45;5.07;;;0.90;;
59418;SDS011;45224;50.904;6.038;2024-03-02T00:34:16;2.15;;;0.90;;
59418;SDS011;45224;50.904;6.038;2024-03-02T00:35:47;2.45;;;0.52;;
59418;SDS011;45224;50.904;6.038;2024-03-02T00:37:19;1.02;;;0.50;;
59418;SDS011;45224;50.904;6.038;2024-03-02T00:38:50;2.03;;;0.55;;
59418;SDS011;45224;50.904;6.038;2024-03-02T00:40:22;1.67;;;0.52;;
59418;SDS011;45224;50.904;6.038;2024-03-02T00:41:59;1.63;;;0.70;;
59418;SDS011;45224;50.904;6.038;2024-03-02T00:45:17;2.22;;;0.60;;
59418;SDS011;45224;50.904;6.038;2024-03-02T00:46:48;2.08;;;0.60;;
59418;SDS011;45224;50.904;6.038;2024-03-02T00:48:18;1.00;;;0.40;;
59418;SDS011;45224;50.904;6.038;2024-03-02T00:49:49;1.27;;;0.38;;
59418;SDS011;45224;50.904;6.038;2024-03-02T00:51:20;2.13;;;0.60;;
59418;SDS011;45224;50.904;6.038;2024-03-02T00:52:51;1.50;;;0.52;;
59418;SDS011;45224;50.904;6.038;2024-03-02T00:54:23;2.85;;;0.55;;
59418;SDS011;45224;50.904;6.038;2024-03-02T00:55:55;1.80;;;0.60;;
59418;SDS011;45224;50.904;6.038;2024-03-02T00:57:27;0.93;;;0.40;;
59418;SDS011;45224;50.904;6.038;2024-03-02T00:59:02;1.77;;;0.50;;
59418;SDS011;45224;50.904;6.038;2024-03-02T01:00:32;2.05;;;0.80;;
59418;SDS011;45224;50.904;6.038;2024-03-02T01:02:02;1.65;;;0.63;;
59418;SDS011;45224;50.904;6.038;2024-03-02T01:03:33;0.80;;;0.60;;
59418;SDS011;45224;50.904;6.038;2024-03-02T01:05:04;3.42;;;0.60;;
59418;SDS011;45224;50.904;6.038;2024-03-02T01:06:35;1.85;;;0.52;;
59418;SDS011;45224;50.904;6.038;2024-03-02T01:08:06;2.10;;;0.43;;
59418;SDS011;45224;50.904;6.038;2024-03-02T01:09:36;2.15;;;0.75;;
59418;SDS011;45224;50.904;6.038;2024-03-02T01:11:07;1.70;;;0.65;;
59418;SDS011;45224;50.904;6.038;2024-03-02T01:12:37;1.20;;;0.63;;
59418;SDS011;45224;50.904;6.038;2024-03-02T01:14:08;3.25;;;0.70;;
59418;SDS011;45224;50.904;6.038;2024-03-02T01:15:38;1.67;;;0.57;;
59418;SDS011;45224;50.904;6.038;2024-03-02T01:17:09;0.85;;;0.52;;
59418;SDS011;45224;50.904;6.038;2024-03-02T01:18:40;1.45;;;0.57;;
59418;SDS011;45224;50.904;6.038;2024-03-02T01:20:10;1.42;;;0.70;;
59418;SDS011;45224;50.904;6.038;2024-03-02T01:21:41;1.00;;;0.70;;
59418;SDS011;45224;50.904;6.038;2024-03-02T01:23:11;1.92;;;0.70;;
59418;SDS011;45224;50.904;6.038;2024-03-02T01:24:42;1.63;;;0.70;;
59418;SDS011;45224;50.904;6.038;2024-03-02T01:26:12;1.25;;;0.60;;
59418;SDS011;45224;50.904;6.038;2024-03-02T01:27:43;3.50;;;0.90;;
59418;SDS011;45224;50.904;6.038;2024-03-02T01:29:13;2.13;;;0.70;;
59418;SDS011;45224;50.904;6.038;2024-03-02T01:30:44;2.08;;;0.63;;
59418;SDS011;45224;50.904;6.038;2024-03-02T01:32:14;1.75;;;0.75;;
59418;SDS011;45224;50.904;6.038;2024-03-02T01:33:46;1.38;;;0.50;;
59418;SDS011;45224;50.904;6.038;2024-03-02T01:35:16;1.40;;;0.40;;
59418;SDS011;45224;50.904;6.038;2024-03-02T01:36:47;0.93;;;0.20;;
59418;SDS011;45224;50.904;6.038;2024-03-02T01:38:17;0.43;;;0.25;;
59418;SDS011;45224;50.904;6.038;2024-03-02T01:39:48;0.63;;;0.32;;
59418;SDS011;45224;50.904;6.038;2024-03-02T01:41:18;0.52;;;0.32;;
59418;SDS011;45224;50.904;6.038;2024-03-02T01:42:48;0.20;;;0.20;;
59418;SDS011;45224;50.904;6.038;2024-03-02T01:44:19;1.00;;;0.20;;
59418;SDS011;45224;50.904;6.038;2024-03-02T01:45:49;0.40;;;0.30;;
59418;SDS011;45224;50.904;6.038;2024-03-02T01:47:20;0.40;;;0.10;;
59418;SDS011;45224;50.904;6.038;2024-03-02T01:48:50;0.15;;;0.15;;
59418;SDS011;45224;50.904;6.038;2024-03-02T01:50:24;0.20;;;0.10;;
59418;SDS011;45224;50.904;6.038;2024-03-02T01:51:59;0.30;;;0.15;;
59418;SDS011;45224;50.904;6.038;2024-03-02T01:53:29;0.20;;;0.20;;
59418;SDS011;45224;50.904;6.038;2024-03-02T01:55:00;0.38;;;0.20;;
59418;SDS011;45224;50.904;6.038;2024-03-02T01:56:30;0.10;;;0.10;;
59418;SDS011;45224;50.904;6.038;2024-03-02T01:58:01;0.52;;;0.10;;
59418;SDS011;45224;50.904;6.038;2024-03-02T01:59:31;0.13;;;0.10;;
59418;SDS011;45224;50.904;6.038;2024-03-02T02:01:02;0.98;;;0.10;;
59418;SDS011;45224;50.904;6.038;2024-03-02T02:02:32;0.10;;;0.10;;
59418;SDS011;45224;50.904;6.038;2024-03-02T02:04:03;0.10;;;0.10;;
59418;SDS011;45224;50.904;6.038;2024-03-02T02:05:34;0.30;;;0.10;;
59418;SDS011;45224;50.904;6.038;2024-03-02T02:07:05;0.20;;;0.20;;
59418;SDS011;45224;50.904;6.038;2024-03-02T02:08:37;0.20;;;0.10;;
59418;SDS011;45224;50.904;6.038;2024-03-02T02:10:08;0.20;;;0.20;;
59418;SDS011;45224;50.904;6.038;2024-03-02T02:11:39;0.15;;;0.10;;
59418;SDS011;45224;50.904;6.038;2024-03-02T02:13:10;0.25;;;0.10;;
59418;SDS011;45224;50.904;6.038;2024-03-02T02:14:46;0.85;;;0.10;;
59418;SDS011;45224;50.904;6.038;2024-03-02T02:16:18;0.25;;;0.10;;
59418;SDS011;45224;50.904;6.038;2024-03-02T02:17:48;0.22;;;0.10;;
59418;SDS011;45224;50.904;6.038;2024-03-02T02:19:19;1.38;;;0.20;;
59418;SDS011;45224;50.904;6.038;2024-03-02T02:20:50;0.28;;;0.10;;
59418;SDS011;45224;50.904;6.038;2024-03-02T02:22:20;0.10;;;0.00;;
59418;SDS011;45224;50.904;6.038;2024-03-02T02:23:50;0.70;;;0.20;;
59418;SDS011;45224;50.904;6.038;2024-03-02T02:25:21;0.38;;;0.08;;
59418;SDS011;45224;50.904;6.038;2024-03-02T02:26:51;0.38;;;0.28;;
59418;SDS011;45224;50.904;6.038;2024-03-02T02:28:22;0.20;;;0.13;;
59418;SDS011;45224;50.904;6.038;2024-03-02T02:29:52;0.25;;;0.13;;
59418;SDS011;45224;50.904;6.038;2024-03-02T02:31:23;0.15;;;0.10;;
59418;SDS011;45224;50.904;6.038;2024-03-02T02:32:53;0.43;;;0.05;;
59418;SDS011;45224;50.904;6.038;2024-03-02T02:34:24;0.10;;;0.05;;
59418;SDS011;45224;50.904;6.038;2024-03-02T02:35:54;1.08;;;0.20;;
59418;SDS011;45224;50.904;6.038;2024-03-02T02:37:24;0.10;;;0.10;;
59418;SDS011;45224;50.904;6.038;2024-03-02T02:38:55;0.52;;;0.10;;
59418;SDS011;45224;50.904;6.038;2024-03-02T02:40:26;0.52;;;0.10;;
59418;SDS011;45224;50.904;6.038;2024-03-02T02:41:57;0.25;;;0.10;;
59418;SDS011;45224;50.904;6.038;2024-03-02T02:43:27;0.73;;;0.20;;
59418;SDS011;45224;50.904;6.038;2024-03-02T02:44:58;0.00;;;0.00;;
59418;SDS011;45224;50.904;6.038;2024-03-02T02:46:28;0.15;;;0.10;;
59418;SDS011;45224;50.904;6.038;2024-03-02T02:47:59;0.43;;;0.10;;
59418;SDS011;45224;50.904;6.038;2024-03-02T02:49:31;0.45;;;0.17;;
59418;SDS011;45224;50.904;6.038;2024-03-02T02:51:01;0.10;;;0.10;;
59418;SDS011;45224;50.904;6.038;2024-03-02T02:52:32;0.30;;;0.10;;
59418;SDS011;45224;50.904;6.038;2024-03-02T02:54:09;0.10;;;0.10;;
59418;SDS011;45224;50.904;6.038;2024-03-02T02:55:39;0.10;;;0.10;;
59418;SDS011;45224;50.904;6.038;2024-03-02T02:57:10;0.40;;;0.17;;
59418;SDS011;45224;50.904;6.038;2024-03-02T02:58:41;0.73;;;0.22;;
59418;SDS011;45224;50.904;6.038;2024-03-02T03:00:14;0.10;;;0.10;;
59418;SDS011;45224;50.904;6.038;2024-03-02T03:01:47;0.35;;;0.20;;
59418;SDS011;45224;50.904;6.038;2024-03-02T03:03:17;0.20;;;0.15;;
59418;SDS011;45224;50.904;6.038;2024-03-02T03:04:48;0.20;;;0.20;;
59418;SDS011;45224;50.904;6.038;2024-03-02T03:06:18;0.20;;;0.13;;
59418;SDS011;45224;50.904;6.038;2024-03-02T03:07:49;0.20;;;0.20;;
59418;SDS011;45224;50.904;6.038;2024-03-02T03:09:20;0.95;;;0.30;;
59418;SDS011;45224;50.904;6.038;2024-03-02T03:10:50;0.60;;;0.60;;
59418;SDS011;45224;50.904;6.038;2024-03-02T03:12:21;2.45;;;1.67;;
59418;SDS011;45224;50.904;6.038;2024-03-02T03:13:52;2.60;;;2.20;;
59418;SDS011;45224;50.904;6.038;2024-03-02T03:15:24;2.83;;;2.28;;
59418;SDS011;45224;50.904;6.038;2024-03-02T03:16:55;1.05;;;0.70;;
59418;SDS011;45224;50.904;6.038;2024-03-02T03:18:26;1.52;;;0.40;;
59418;SDS011;45224;50.904;6.038;2024-03-02T03:19:56;0.40;;;0.40;;
59418;SDS011;45224;50.904;6.038;2024-03-02T03:21:27;0.45;;;0.38;;
59418;SDS011;45224;50.904;6.038;2024-03-02T03:22:57;0.60;;;0.22;;
59418;SDS011;45224;50.904;6.038;2024-03-02T03:24:27;0.95;;;0.30;;
59418;SDS011;45224;50.904;6.038;2024-03-02T03:25:58;0.15;;;0.10;;
59418;SDS011;45224;50.904;6.038;2024-03-02T03:27:28;0.22;;;0.17;;
59418;SDS011;45224;50.904;6.038;2024-03-02T03:28:59;0.20;;;0.20;;
59418;SDS011;45224;50.904;6.038;2024-03-02T03:30:29;0.65;;;0.30;;
59418;SDS011;45224;50.904;6.038;2024-03-02T03:32:00;0.40;;;0.20;;
59418;SDS011;45224;50.904;6.038;2024-03-02T03:33:30;0.10;;;0.10;;
59418;SDS011;45224;50.904;6.038;2024-03-02T03:35:01;0.32;;;0.25;;
59418;SDS011;45224;50.904;6.038;2024-03-02T03:36:31;0.30;;;0.20;;
59418;SDS011;45224;50.904;6.038;2024-03-02T03:38:02;0.35;;;0.10;;
59418;SDS011;45224;50.904;6.038;2024-03-02T03:39:33;0.85;;;0.28;;
59418;SDS011;45224;50.904;6.038;2024-03-02T03:41:05;0.50;;;0.40;;
59418;SDS011;45224;50.904;6.038;2024-03-02T03:42:36;1.15;;;0.50;;
59418;SDS011;45224;50.904;6.038;2024-03-02T03:44:07;0.10;;;0.10;;
59418;SDS011;45224;50.904;6.038;2024-03-02T03:45:37;0.57;;;0.28;;
59418;SDS011;45224;50.904;6.038;2024-03-02T03:47:07;0.32;;;0.20;;
59418;SDS011;45224;50.904;6.038;2024-03-02T03:48:38;0.50;;;0.30;;
59418;SDS011;45224;50.904;6.038;2024-03-02T03:50:08;0.38;;;0.22;;
59418;SDS011;45224;50.904;6.038;2024-03-02T03:51:39;0.65;;;0.30;;
59418;SDS011;45224;50.904;6.038;2024-03-02T03:53:09;0.40;;;0.40;;
59418;SDS011;45224;50.904;6.038;2024-03-02T03:54:40;0.20;;;0.20;;
59418;SDS011;45224;50.904;6.038;2024-03-02T03:56:13;0.68;;;0.30;;
59418;SDS011;45224;50.904;6.038;2024-03-02T03:57:43;0.65;;;0.30;;
59418;SDS011;45224;50.904;6.038;2024-03-02T03:59:13;1.77;;;0.47;;
59418;SDS011;45224;50.904;6.038;2024-03-02T04:00:44;0.63;;;0.40;;
59418;SDS011;45224;50.904;6.038;2024-03-02T04:02:14;1.67;;;0.40;;
59418;SDS011;45224;50.904;6.038;2024-03-02T04:03:45;0.60;;;0.32;;
59418;SDS011;45224;50.904;6.038;2024-03-02T04:05:15;0.85;;;0.50;;
59418;SDS011;45224;50.904;6.038;2024-03-02T04:06:46;4.65;;;0.52;;
59418;SDS011;45224;50.904;6.038;2024-03-02T04:08:16;0.25;;;0.20;;
59418;SDS011;45224;50.904;6.038;2024-03-02T04:09:47;0.25;;;0.20;;
59418;SDS011;45224;50.904;6.038;2024-03-02T04:11:17;0.40;;;0.30;;
59418;SDS011;45224;50.904;6.038;2024-03-02T04:12:48;0.70;;;0.30;;
59418;SDS011;45224;50.904;6.038;2024-03-02T04:14:19;0.30;;;0.28;;
59418;SDS011;45224;50.904;6.038;2024-03-02T04:15:49;0.55;;;0.40;;
59418;SDS011;45224;50.904;6.038;2024-03-02T04:17:20;0.32;;;0.32;;
59418;SDS011;45224;50.904;6.038;2024-03-02T04:18:50;0.73;;;0.40;;
59418;SDS011;45224;50.904;6.038;2024-03-02T04:20:21;0.45;;;0.30;;
59418;SDS011;45224;50.904;6.038;2024-03-02T04:21:51;0.57;;;0.38;;
59418;SDS011;45224;50.904;6.038;2024-03-02T04:23:22;1.88;;;0.50;;
59418;SDS011;45224;50.904;6.038;2024-03-02T04:24:52;0.32;;;0.30;;
59418;SDS011;45224;50.904;6.038;2024-03-02T04:26:23;2.40;;;0.40;;
59418;SDS011;45224;50.904;6.038;2024-03-02T04:27:53;0.80;;;0.70;;
59418;SDS011;45224;50.904;6.038;2024-03-02T04:29:24;0.30;;;0.30;;
59418;SDS011;45224;50.904;6.038;2024-03-02T04:30:54;1.85;;;0.70;;
59418;SDS011;45224;50.904;6.038;2024-03-02T04:32:25;0.93;;;0.50;;
59418;SDS011;45224;50.904;6.038;2024-03-02T04:33:58;0.57;;;0.45;;
59418;SDS011;45224;50.904;6.038;2024-03-02T04:35:29;1.13;;;0.50;;
59418;SDS011;45224;50.904;6.038;2024-03-02T04:36:59;1.05;;;0.52;;
59418;SDS011;45224;50.904;6.038;2024-03-02T04:38:30;0.35;;;0.32;;
59418;SDS011;45224;50.904;6.038;2024-03-02T04:40:02;1.02;;;0.55;;
59418;SDS011;45224;50.904;6.038;2024-03-02T04:41:32;1.35;;;0.60;;
59418;SDS011;45224;50.904;6.038;2024-03-02T04:43:03;2.40;;;0.50;;
59418;SDS011;45224;50.904;6.038;2024-03-02T04:44:33;0.40;;;0.40;;
59418;SDS011;45224;50.904;6.038;2024-03-02T04:46:04;1.75;;;0.52;;
59418;SDS011;45224;50.904;6.038;2024-03-02T04:47:36;0.30;;;0.20;;
59418;SDS011;45224;50.904;6.038;2024-03-02T04:49:07;2.25;;;0.40;;
59418;SDS011;45224;50.904;6.038;2024-03-02T04:50:37;0.98;;;0.47;;
59418;SDS011;45224;50.904;6.038;2024-03-02T04:52:08;0.70;;;0.50;;
59418;SDS011;45224;50.904;6.038;2024-03-02T04:53:38;0.50;;;0.40;;
59418;SDS011;45224;50.904;6.038;2024-03-02T04:55:09;1.27;;;0.40;;
59418;SDS011;45224;50.904;6.038;2024-03-02T04:56:39;0.73;;;0.40;;
59418;SDS011;45224;50.904;6.038;2024-03-02T04:58:14;0.60;;;0.40;;
59418;SDS011;45224;50.904;6.038;2024-03-02T04:59:44;1.58;;;0.43;;
59418;SDS011;45224;50.904;6.038;2024-03-02T05:01:15;0.75;;;0.50;;
59418;SDS011;45224;50.904;6.038;2024-03-02T05:02:47;2.30;;;0.50;;
59418;SDS011;45224;50.904;6.038;2024-03-02T05:04:17;0.55;;;0.40;;
59418;SDS011;45224;50.904;6.038;2024-03-02T05:05:48;0.45;;;0.22;;
59418;SDS011;45224;50.904;6.038;2024-03-02T05:07:18;0.98;;;0.38;;
59418;SDS011;45224;50.904;6.038;2024-03-02T05:08:49;0.50;;;0.50;;
59418;SDS011;45224;50.904;6.038;2024-03-02T05:10:19;1.35;;;0.30;;
59418;SDS011;45224;50.904;6.038;2024-03-02T05:11:50;1.00;;;0.30;;
59418;SDS011;45224;50.904;6.038;2024-03-02T05:13:45;0.38;;;0.22;;
59418;SDS011;45224;50.904;6.038;2024-03-02T05:15:16;1.23;;;0.30;;
59418;SDS011;45224;50.904;6.038;2024-03-02T05:16:47;0.60;;;0.20;;
59418;SDS011;45224;50.904;6.038;2024-03-02T05:18:17;0.55;;;0.30;;
59418;SDS011;45224;50.904;6.038;2024-03-02T05:19:47;0.90;;;0.28;;
59418;SDS011;45224;50.904;6.038;2024-03-02T05:21:18;0.10;;;0.10;;
59418;SDS011;45224;50.904;6.038;2024-03-02T05:22:48;0.25;;;0.10;;
59418;SDS011;45224;50.904;6.038;2024-03-02T05:24:19;0.10;;;0.10;;
59418;SDS011;45224;50.904;6.038;2024-03-02T05:25:50;0.57;;;0.15;;
59418;SDS011;45224;50.904;6.038;2024-03-02T05:27:20;0.10;;;0.10;;
59418;SDS011;45224;50.904;6.038;2024-03-02T05:28:51;0.70;;;0.10;;
59418;SDS011;45224;50.904;6.038;2024-03-02T05:30:23;0.00;;;0.00;;
59418;SDS011;45224;50.904;6.038;2024-03-02T05:31:56;0.47;;;0.20;;
59418;SDS011;45224;50.904;6.038;2024-03-02T05:33:26;0.40;;;0.13;;
59418;SDS011;45224;50.904;6.038;2024-03-02T05:34:57;0.40;;;0.10;;
59418;SDS011;45224;50.904;6.038;2024-03-02T05:36:27;0.10;;;0.10;;
59418;SDS011;45224;50.904;6.038;2024-03-02T05:37:58;1.65;;;0.20;;
59418;SDS011;45224;50.904;6.038;2024-03-02T05:39:29;0.52;;;0.10;;
59418;SDS011;45224;50.904;6.038;2024-03-02T05:40:59;0.10;;;0.10;;
59418;SDS011;45224;50.904;6.038;2024-03-02T05:42:30;0.20;;;0.10;;
59418;SDS011;45224;50.904;6.038;2024-03-02T05:44:00;0.15;;;0.10;;
59418;SDS011;45224;50.904;6.038;2024-03-02T05:45:31;1.48;;;0.45;;
59418;SDS011;45224;50.904;6.038;2024-03-02T05:47:02;0.10;;;0.10;;
59418;SDS011;45224;50.904;6.038;2024-03-02T05:48:33;1.02;;;0.10;;
59418;SDS011;45224;50.904;6.038;2024-03-02T05:50:03;0.47;;;0.05;;
59418;SDS011;45224;50.904;6.038;2024-03-02T05:51:34;0.77;;;0.10;;
59418;SDS011;45224;50.904;6.038;2024-03-02T05:53:05;0.55;;;0.13;;
59418;SDS011;45224;50.904;6.038;2024-03-02T05:54:35;0.30;;;0.00;;
59418;SDS011;45224;50.904;6.038;2024-03-02T05:56:06;0.90;;;0.10;;
59418;SDS011;45224;50.904;6.038;2024-03-02T05:57:36;0.63;;;0.10;;
59418;SDS011;45224;50.904;6.038;2024-03-02T05:59:25;0.30;;;0.10;;
59418;SDS011;45224;50.904;6.038;2024-03-02T06:00:56;0.38;;;0.20;;
59418;SDS011;45224;50.904;6.038;2024-03-02T06:02:27;1.35;;;0.20;;
59418;SDS011;45224;50.904;6.038;2024-03-02T06:03:57;1.02;;;0.30;;
59418;SDS011;45224;50.904;6.038;2024-03-02T06:05:28;0.28;;;0.15;;
59418;SDS011;45224;50.904;6.038;2024-03-02T06:06:59;0.30;;;0.20;;
59418;SDS011;45224;50.904;6.038;2024-03-02T06:08:29;0.13;;;0.10;;
59418;SDS011;45224;50.904;6.038;2024-03-02T06:10:00;1.05;;;0.40;;
59418;SDS011;45224;50.904;6.038;2024-03-02T06:11:30;0.90;;;0.10;;
59418;SDS011;45224;50.904;6.038;2024-03-02T06:13:01;0.20;;;0.20;;
59418;SDS011;45224;50.904;6.038;2024-03-02T06:14:31;0.20;;;0.20;;
59418;SDS011;45224;50.904;6.038;2024-03-02T06:16:01;1.10;;;0.22;;
59418;SDS011;45224;50.904;6.038;2024-03-02T06:17:32;0.70;;;0.10;;
59418;SDS011;45224;50.904;6.038;2024-03-02T06:19:02;0.25;;;0.20;;
59418;SDS011;45224;50.904;6.038;2024-03-02T06:20:33;0.13;;;0.10;;
59418;SDS011;45224;50.904;6.038;2024-03-02T06:22:04;0.55;;;0.17;;
59418;SDS011;45224;50.904;6.038;2024-03-02T06:23:35;0.28;;;0.10;;
59418;SDS011;45224;50.904;6.038;2024-03-02T06:25:06;0.52;;;0.20;;
59418;SDS011;45224;50.904;6.038;2024-03-02T06:26:37;0.17;;;0.10;;
59418;SDS011;45224;50.904;6.038;2024-03-02T06:28:07;0.32;;;0.20;;
59418;SDS011;45224;50.904;6.038;2024-03-02T06:29:38;0.30;;;0.17;;
59418;SDS011;45224;50.904;6.038;2024-03-02T06:31:08;0.20;;;0.10;;
59418;SDS011;45224;50.904;6.038;2024-03-02T06:32:39;0.35;;;0.20;;
59418;SDS011;45224;50.904;6.038;2024-03-02T06:34:09;0.15;;;0.15;;
59418;SDS011;45224;50.904;6.038;2024-03-02T06:35:40;0.50;;;0.20;;
59418;SDS011;45224;50.904;6.038;2024-03-02T06:37:11;1.45;;;0.30;;
59418;SDS011;45224;50.904;6.038;2024-03-02T06:38:41;0.47;;;0.10;;
59418;SDS011;45224;50.904;6.038;2024-03-02T06:40:12;0.70;;;0.10;;
59418;SDS011;45224;50.904;6.038;2024-03-02T06:41:42;0.40;;;0.10;;
59418;SDS011;45224;50.904;6.038;2024-03-02T06:43:13;0.40;;;0.20;;
59418;SDS011;45224;50.904;6.038;2024-03-02T06:44:43;0.17;;;0.17;;
59418;SDS011;45224;50.904;6.038;2024-03-02T06:46:14;0.98;;;0.22;;
59418;SDS011;45224;50.904;6.038;2024-03-02T06:47:45;0.55;;;0.20;;
59418;SDS011;45224;50.904;6.038;2024-03-02T06:49:15;1.48;;;0.20;;
59418;SDS011;45224;50.904;6.038;2024-03-02T06:50:48;1.08;;;0.20;;
59418;SDS011;45224;50.904;6.038;2024-03-02T06:52:19;0.30;;;0.20;;
59418;SDS011;45224;50.904;6.038;2024-03-02T06:53:50;0.80;;;0.25;;
59418;SDS011;45224;50.904;6.038;2024-03-02T06:55:21;0.80;;;0.20;;
59418;SDS011;45224;50.904;6.038;2024-03-02T06:56:52;1.63;;;0.28;;
59418;SDS011;45224;50.904;6.038;2024-03-02T06:58:22;1.00;;;0.20;;
59418;SDS011;45224;50.904;6.038;2024-03-02T06:59:53;0.85;;;0.30;;
59418;SDS011;45224;50.904;6.038;2024-03-02T07:01:27;0.57;;;0.30;;
59418;SDS011;45224;50.904;6.038;2024-03-02T07:02:58;1.52;;;0.40;;
59418;SDS011;45224;50.904;6.038;2024-03-02T07:04:28;0.55;;;0.30;;
59418;SDS011;45224;50.904;6.038;2024-03-02T07:05:59;0.20;;;0.20;;
59418;SDS011;45224;50.904;6.038;2024-03-02T07:07:29;1.77;;;0.40;;
59418;SDS011;45224;50.904;6.038;2024-03-02T07:08:59;2.30;;;0.30;;
59418;SDS011;45224;50.904;6.038;2024-03-02T07:10:30;0.93;;;0.10;;
59418;SDS011;45224;50.904;6.038;2024-03-02T07:12:00;1.48;;;0.40;;
59418;SDS011;45224;50.904;6.038;2024-03-02T07:13:31;0.60;;;0.10;;
59418;SDS011;45224;50.904;6.038;2024-03-02T07:15:02;1.27;;;0.30;;
59418;SDS011;45224;50.904;6.038;2024-03-02T07:16:33;0.70;;;0.40;;
59418;SDS011;45224;50.904;6.038;2024-03-02T07:18:04;1.17;;;0.22;;
59418;SDS011;45224;50.904;6.038;2024-03-02T07:19:35;0.93;;;0.30;;
59418;SDS011;45224;50.904;6.038;2024-03-02T07:21:05;1.77;;;0.45;;
59418;SDS011;45224;50.904;6.038;2024-03-02T07:22:35;1.45;;;0.40;;
59418;SDS011;45224;50.904;6.038;2024-03-02T07:24:07;1.85;;;0.28;;
59418;SDS011;45224;50.904;6.038;2024-03-02T07:25:39;1.38;;;0.30;;
59418;SDS011;45224;50.904;6.038;2024-03-02T07:27:10;2.28;;;0.38;;
59418;SDS011;45224;50.904;6.038;2024-03-02T07:28:41;0.43;;;0.30;;
59418;SDS011;45224;50.904;6.038;2024-03-02T07:30:15;1.88;;;0.20;;
59418;SDS011;45224;50.904;6.038;2024-03-02T07:31:48;0.70;;;0.20;;
59418;SDS011;45224;50.904;6.038;2024-03-02T07:33:18;0.75;;;0.30;;
59418;SDS011;45224;50.904;6.038;2024-03-02T07:36:22;0.30;;;0.20;;
59418;SDS011;45224;50.904;6.038;2024-03-02T07:37:53;0.60;;;0.20;;
59418;SDS011;45224;50.904;6.038;2024-03-02T07:39:24;0.73;;;0.10;;
59418;SDS011;45224;50.904;6.038;2024-03-02T07:40:54;0.60;;;0.30;;
59418;SDS011;45224;50.904;6.038;2024-03-02T07:42:25;1.90;;;0.40;;
59418;SDS011;45224;50.904;6.038;2024-03-02T07:43:56;0.65;;;0.32;;
59418;SDS011;45224;50.904;6.038;2024-03-02T07:45:27;1.13;;;0.40;;
59418;SDS011;45224;50.904;6.038;2024-03-02T07:46:57;2.80;;;0.70;;
59418;SDS011;45224;50.904;6.038;2024-03-02T07:48:27;1.27;;;0.32;;
59418;SDS011;45224;50.904;6.038;2024-03-02T07:49:58;1.50;;;0.30;;
59418;SDS011;45224;50.904;6.038;2024-03-02T07:51:28;2.33;;;0.22;;
59418;SDS011;45224;50.904;6.038;2024-03-02T07:52:59;1.65;;;0.20;;
59418;SDS011;45224;50.904;6.038;2024-03-02T07:54:29;0.80;;;0.32;;
59418;SDS011;45224;50.904;6.038;2024-03-02T07:56:00;1.15;;;0.30;;
59418;SDS011;45224;50.904;6.038;2024-03-02T07:57:32;1.30;;;0.40;;
59418;SDS011;45224;50.904;6.038;2024-03-02T07:59:03;0.88;;;0.30;;
59418;SDS011;45224;50.904;6.038;2024-03-02T08:00:34;1.02;;;0.20;;
59418;SDS011;45224;50.904;6.038;2024-03-02T08:02:05;1.38;;;0.30;;
59418;SDS011;45224;50.904;6.038;2024-03-02T08:03:37;0.73;;;0.28;;
59418;SDS011;45224;50.904;6.038;2024-03-02T08:05:07;0.10;;;0.10;;
59418;SDS011;45224;50.904;6.038;2024-03-02T08:06:38;1.23;;;0.30;;
59418;SDS011;45224;50.904;6.038;2024-03-02T08:08:09;0.35;;;0.10;;
59418;SDS011;45224;50.904;6.038;2024-03-02T08:09:39;0.43;;;0.20;;
59418;SDS011;45224;50.904;6.038;2024-03-02T08:11:09;0.60;;;0.20;;
59418;SDS011;45224;50.904;6.038;2024-03-02T08:12:40;1.05;;;0.17;;
59418;SDS011;45224;50.904;6.038;2024-03-02T08:14:10;2.22;;;0.30;;
59418;SDS011;45224;50.904;6.038;2024-03-02T08:15:41;1.95;;;0.40;;
59418;SDS011;45224;50.904;6.038;2024-03-02T08:17:11;0.95;;;0.10;;
59418;SDS011;45224;50.904;6.038;2024-03-02T08:18:42;2.25;;;0.30;;
59418;SDS011;45224;50.904;6.038;2024-03-02T08:20:12;0.68;;;0.30;;
59418;SDS011;45224;50.904;6.038;2024-03-02T08:21:43;0.85;;;0.25;;
59418;SDS011;45224;50.904;6.038;2024-03-02T08:23:14;0.73;;;0.20;;
59418;SDS011;45224;50.904;6.038;2024-03-02T08:24:44;0.57;;;0.10;;
59418;SDS011;45224;50.904;6.038;2024-03-02T08:26:15;0.52;;;0.20;;
59418;SDS011;45224;50.904;6.038;2024-03-02T08:27:45;0.47;;;0.22;;
59418;SDS011;45224;50.904;6.038;2024-03-02T08:29:16;0.63;;;0.10;;
59418;SDS011;45224;50.904;6.038;2024-03-02T08:30:46;1.10;;;0.20;;
59418;SDS011;45224;50.904;6.038;2024-03-02T08:32:17;0.93;;;0.30;;
59418;SDS011;45224;50.904;6.038;2024-03-02T08:33:47;0.68;;;0.40;;
59418;SDS011;45224;50.904;6.038;2024-03-02T08:35:18;0.85;;;0.20;;
59418;SDS011;45224;50.904;6.038;2024-03-02T08:36:48;0.57;;;0.20;;
59418;SDS011;45224;50.904;6.038;2024-03-02T08:38:19;0.75;;;0.32;;
59418;SDS011;45224;50.904;6.038;2024-03-02T08:39:49;2.10;;;0.30;;
59418;SDS011;45224;50.904;6.038;2024-03-02T08:41:20;1.08;;;0.40;;
59418;SDS011;45224;50.904;6.038;2024-03-02T08:42:51;0.80;;;0.28;;
59418;SDS011;45224;50.904;6.038;2024-03-02T08:44:22;0.77;;;0.30;;
59418;SDS011;45224;50.904;6.038;2024-03-02T08:45:52;2.33;;;0.40;;
59418;SDS011;45224;50.904;6.038;2024-03-02T08:47:23;1.50;;;0.47;;
59418;SDS011;45224;50.904;6.038;2024-03-02T08:48:53;2.70;;;0.50;;
59418;SDS011;45224;50.904;6.038;2024-03-02T08:50:24;1.55;;;0.50;;
59418;SDS011;45224;50.904;6.038;2024-03-02T08:51:54;0.93;;;0.50;;
59418;SDS011;45224;50.904;6.038;2024-03-02T08:53:25;2.03;;;0.30;;
59418;SDS011;45224;50.904;6.038;2024-03-02T08:54:56;0.93;;;0.30;;
59418;SDS011;45224;50.904;6.038;2024-03-02T08:56:26;0.63;;;0.30;;
59418;SDS011;45224;50.904;6.038;2024-03-02T08:57:57;0.95;;;0.40;;
59418;SDS011;45224;50.904;6.038;2024-03-02T08:59:28;0.70;;;0.40;;
59418;SDS011;45224;50.904;6.038;2024-03-02T09:00:58;2.90;;;0.50;;
59418;SDS011;45224;50.904;6.038;2024-03-02T09:02:29;1.45;;;0.55;;
59418;SDS011;45224;50.904;6.038;2024-03-02T09:03:59;1.10;;;0.30;;
59418;SDS011;45224;50.904;6.038;2024-03-02T09:05:30;1.70;;;0.50;;
59418;SDS011;45224;50.904;6.038;2024-03-02T09:07:00;1.92;;;0.50;;
59418;SDS011;45224;50.904;6.038;2024-03-02T09:08:31;2.03;;;0.40;;
59418;SDS011;45224;50.904;6.038;2024-03-02T09:10:01;0.68;;;0.40;;
59418;SDS011;45224;50.904;6.038;2024-03-02T09:11:32;1.65;;;0.40;;